< < Back
Terminal Aerodrome Forecast


Current Version              Previous Versions:   1  2  3  4  5  6  7  8  9  

Terminal Aerodrome Forecast

880
FTUS42 KGSP 272338
TAFCLT
TAF
KCLT 272338Z 2800/2824 31011G15KT P6SM BKN060
     FM280200 33007KT P6SM FEW060
     FM281000 33003KT P6SM FEW250
     FM282100 24005KT P6SM FEW070=



Latest METAR

108
SAUS70 KWBC 280900 RRG
MTRCLT
METAR KCLT 280852Z 32006KT 10SM CLR M02/M07 A3033 RMK AO2 SLP272
T10171067 51006


USA.gov is the U.S. government's official web portal to all federal, state and local government web resources and services.